Time;durP1;ratioP1;P1;durP2;ratioP2;P2;SDS_P1;SDS_P2;PMS_P1;PMS_P2;Temp;Humidity;BMP_temperature;BMP_pressure;BME280_temperature;BME280_humidity;BME280_pressure;Samples;Min_cycle;Max_cycle;Signal;HPM_P1;HPM_P2
2021/04/18 00:00:24;;;;;;;26.12;20.17;;;;;;;5.67;87.40;100786.09;1761404;80;21214;-73
2021/04/18 00:02:52;;;;;;;25.75;19.23;;;;;;;5.75;87.43;100779.17;1759233;80;21204;-72
2021/04/18 00:05:23;;;;;;;26.07;19.37;;;;;;;5.81;87.49;100785.73;1761071;79;21235;-72
2021/04/18 00:07:51;;;;;;;27.00;20.12;;;;;;;5.84;87.54;100783.97;1751149;79;21207;-72
2021/04/18 00:10:20;;;;;;;26.48;19.75;;;;;;;5.86;87.59;100789.87;1762142;80;21434;-71
2021/04/18 00:12:50;;;;;;;22.37;17.62;;;;;;;5.86;87.67;100784.58;1759822;80;21280;-72
2021/04/18 00:15:18;;;;;;;24.30;18.17;;;;;;;5.83;87.75;100782.36;1750850;80;22419;-73
2021/04/18 00:17:47;;;;;;;24.37;18.12;;;;;;;5.76;87.88;100778.14;1756942;80;21186;-73
2021/04/18 00:20:15;;;;;;;24.00;17.55;;;;;;;5.71;88.11;100778.80;1757727;79;21164;-72
2021/04/18 00:22:44;;;;;;;23.35;17.27;;;;;;;5.67;88.24;100773.66;1760338;80;21251;-72
2021/04/18 00:25:15;;;;;;;26.27;18.82;;;;;;;5.68;88.55;100779.76;1755921;80;21462;-72
2021/04/18 00:27:45;;;;;;;;;;;;;;;5.63;88.74;100775.94;1756509;79;21238;-73
2021/04/18 00:30:35;;;;;;;23.55;16.85;;;;;;;5.58;88.94;100778.94;1754799;79;20279;-73
2021/04/18 00:33:04;;;;;;;22.82;16.82;;;;;;;5.56;89.12;100777.84;1734857;81;21195;-68
2021/04/18 00:35:32;;;;;;;22.35;17.05;;;;;;;5.57;89.28;100771.50;1724977;81;21261;-68
2021/04/18 00:38:00;;;;;;;18.32;14.03;;;;;;;5.55;89.46;100769.58;1671571;85;21164;-68
2021/04/18 00:40:28;;;;;;;19.62;14.80;;;;;;;5.56;89.58;100777.01;1725085;83;21143;-67
2021/04/18 00:42:55;;;;;;;22.20;16.20;;;;;;;5.53;89.75;100772.17;1735584;81;21048;-69
2021/04/18 00:45:23;;;;;;;20.70;15.68;;;;;;;5.51;89.83;100763.62;1712124;82;21595;-68
2021/04/18 00:47:53;;;;;;;20.17;15.75;;;;;;;5.51;90.05;100772.37;1708206;82;22297;-68
2021/04/18 00:50:29;;;;;;;16.45;11.80;;;;;;;5.47;90.16;100773.04;1730311;81;21563;-68
2021/04/18 00:52:57;;;;;;;18.80;14.18;;;;;;;5.46;90.29;100776.69;1707478;82;21193;-67
2021/04/18 00:55:28;;;;;;;20.30;15.55;;;;;;;5.47;90.46;100774.36;1727559;82;21067;-70
2021/04/18 00:57:56;;;;;;;21.62;15.90;;;;;;;5.46;90.56;100770.88;1736367;81;21649;-69
2021/04/18 01:00:26;;;;;;;21.60;17.20;;;;;;;5.47;90.63;100764.57;1737397;81;23168;-69
2021/04/18 01:02:54;;;;;;;21.20;15.90;;;;;;;5.49;90.70;100761.69;1735235;81;21177;-69
2021/04/18 01:05:23;;;;;;;21.62;15.75;;;;;;;5.51;90.78;100768.92;1729378;81;21595;-69
2021/04/18 01:07:55;;;;;;;19.75;14.75;;;;;;;5.56;90.84;100765.08;1719710;82;21147;-69
2021/04/18 01:10:23;;;;;;;21.65;16.27;;;;;;;5.56;90.90;100758.45;1727715;81;21114;-68
2021/04/18 01:12:54;;;;;;;19.62;15.18;;;;;;;5.56;90.93;100757.13;1694084;83;21148;-68
2021/04/18 01:15:22;;;;;;;23.12;17.20;;;;;;;5.55;90.96;100750.22;1700824;84;21129;-68
2021/04/18 01:17:49;;;;;;;19.20;14.78;;;;;;;5.56;91.04;100745.21;1694768;84;21754;-68
2021/04/18 01:20:21;;;;;;;21.07;15.83;;;;;;;5.59;91.07;100741.64;1701214;82;21129;-69
2021/04/18 01:22:51;;;;;;;18.77;13.83;;;;;;;5.60;91.11;100739.79;1692124;83;21148;-68
2021/04/18 01:25:27;;;;;;;19.90;15.53;;;;;;;5.62;91.17;100738.52;1708549;82;21225;-68
2021/04/18 01:28:00;;;;;;;19.57;15.20;;;;;;;5.62;91.17;100740.36;1693626;84;21226;-69
2021/04/18 01:30:29;;;;;;;20.40;15.48;;;;;;;5.58;91.21;100733.89;1698233;82;21596;-68
2021/04/18 01:33:02;;;;;;;17.32;13.75;;;;;;;5.62;91.26;100738.52;1701167;82;21204;-69
2021/04/18 01:35:30;;;;;;;18.05;13.70;;;;;;;5.65;91.32;100731.45;1701102;83;21149;-68
2021/04/18 01:38:00;;;;;;;16.97;13.45;;;;;;;5.67;91.33;100729.93;1694833;84;21101;-69
2021/04/18 01:40:28;;;;;;;19.05;15.03;;;;;;;5.68;91.32;100724.11;1700655;82;21640;-67
2021/04/18 01:42:58;;;;;;;18.32;14.45;;;;;;;5.69;91.32;100721.75;1676375;83;21232;-69
2021/04/18 01:45:26;;;;;;;19.12;14.10;;;;;;;5.69;91.31;100721.75;1692226;83;21089;-69
2021/04/18 01:47:56;;;;;;;19.48;15.32;;;;;;;5.68;91.33;100716.97;1697706;84;21660;-68
2021/04/18 01:50:25;;;;;;;18.42;14.25;;;;;;;5.69;91.34;100719.09;1693682;83;22317;-69
2021/04/18 01:52:53;;;;;;;18.15;14.43;;;;;;;5.69;91.32;100715.92;1701902;82;21661;-70
2021/04/18 01:55:23;;;;;;;19.07;14.93;;;;;;;5.71;91.32;100714.39;1692468;84;21103;-69
2021/04/18 01:57:53;;;;;;;20.68;15.50;;;;;;;5.71;91.36;100709.91;1702730;84;21217;-68
2021/04/18 02:00:23;;;;;;;18.25;13.93;;;;;;;5.72;91.36;100711.52;1701036;84;21181;-69
2021/04/18 02:02:53;;;;;;;20.35;15.68;;;;;;;5.76;91.38;100716.69;1693093;84;22201;-69
2021/04/18 02:05:23;;;;;;;16.85;13.00;;;;;;;5.78;91.36;100713.28;1702619;82;21173;-68
2021/04/18 02:07:53;;;;;;;18.15;14.55;;;;;;;5.82;91.34;100709.18;1696105;83;21208;-68
2021/04/18 02:10:21;;;;;;;17.40;12.85;;;;;;;5.80;91.23;100712.56;1693732;83;21501;-69
2021/04/18 02:12:50;;;;;;;18.30;14.30;;;;;;;5.77;91.19;100710.34;1701655;82;21209;-69
2021/04/18 02:15:21;;;;;;;20.70;15.18;;;;;;;5.76;91.19;100702.11;1692463;83;21169;-69
2021/04/18 02:17:49;;;;;;;16.27;12.88;;;;;;;5.79;91.16;100699.02;1703348;83;21716;-68
2021/04/18 02:20:18;;;;;;;17.25;13.48;;;;;;;5.83;91.13;100697.53;1692607;84;21150;-69
2021/04/18 02:22:46;;;;;;;17.75;13.50;;;;;;;5.81;90.99;100695.61;1699486;82;21262;-68
2021/04/18 02:25:14;;;;;;;20.37;15.83;;;;;;;5.76;90.93;100697.30;1693468;84;21594;-68
2021/04/18 02:27:43;;;;;;;19.50;15.32;;;;;;;5.70;90.86;100696.36;1705537;83;21390;-69
2021/04/18 02:30:15;;;;;;;19.35;15.28;;;;;;;5.68;90.87;100691.79;1695711;84;21211;-68
2021/04/18 02:32:44;;;;;;;20.35;15.40;;;;;;;5.69;90.90;100694.72;1697448;82;21199;-69
2021/04/18 02:35:16;;;;;;;20.70;14.85;;;;;;;5.64;90.80;100691.42;1692874;83;21141;-69
2021/04/18 02:37:47;;;;;;;21.80;17.50;;;;;;;5.61;90.83;100690.54;1703774;82;21174;-68
2021/04/18 02:40:17;;;;;;;19.05;15.40;;;;;;;5.60;90.87;100677.52;1700434;84;23556;-69
2021/04/18 02:42:46;;;;;;;19.17;14.83;;;;;;;5.59;90.92;100675.88;1699706;84;21129;-69
2021/04/18 02:45:15;;;;;;;19.95;15.32;;;;;;;5.60;90.97;100666.92;1692905;83;21137;-69
2021/04/18 02:47:51;;;;;;;22.13;15.18;;;;;;;5.62;91.01;100666.17;1701774;82;21201;-68
2021/04/18 02:50:20;;;;;;;20.27;15.38;;;;;;;5.65;90.97;100669.19;1690796;83;21157;-69
2021/04/18 02:52:48;;;;;;;20.65;16.10;;;;;;;5.62;90.83;100667.49;1700661;84;21841;-69
2021/04/18 02:55:17;;;;;;;18.45;14.13;;;;;;;5.60;90.82;100668.25;1693145;83;21607;-69
2021/04/18 02:57:57;;;;;;;19.77;15.17;;;;;;;5.63;90.83;100667.81;1827588;77;22512;-69
2021/04/18 03:00:27;;;;;;;20.20;15.23;;;;;;;5.55;90.86;100665.44;1795002;78;21172;-68
2021/04/18 03:02:55;;;;;;;18.95;14.65;;;;;;;5.53;90.89;100662.22;1770128;80;21191;-69
2021/04/18 03:05:24;;;;;;;20.15;15.05;;;;;;;5.52;90.92;100662.70;1795646;77;21170;-68
2021/04/18 03:07:54;;;;;;;18.50;14.07;;;;;;;5.53;90.96;100667.52;1807760;79;21048;-68
2021/04/18 03:10:24;;;;;;;21.42;16.27;;;;;;;5.54;90.96;100663.83;1806943;79;21175;-68
2021/04/18 03:12:52;;;;;;;19.82;14.58;;;;;;;5.56;90.97;100664.40;1796027;79;21175;-69
2021/04/18 03:15:21;;;;;;;18.87;13.32;;;;;;;5.56;91.02;100660.42;1797516;79;21428;-70
2021/04/18 03:17:51;;;;;;;19.48;14.33;;;;;;;5.56;91.06;100665.72;1799882;79;21178;-68
2021/04/18 03:20:20;;;;;;;20.52;14.78;;;;;;;5.59;91.10;100669.26;1793319;79;21187;-71
2021/04/18 03:22:49;;;;;;;18.60;13.55;;;;;;;5.63;91.08;100673.11;1767410;79;21622;-68
2021/04/18 03:25:17;;;;;;;17.77;13.28;;;;;;;5.67;91.08;100672.15;1806244;78;21576;-68
2021/04/18 03:27:46;;;;;;;17.25;12.07;;;;;;;5.67;91.01;100668.17;1793349;79;21633;-68
2021/04/18 03:30:20;;;;;;;18.75;13.78;;;;;;;5.65;90.95;100667.05;1803662;79;21083;-69
2021/04/18 03:32:49;;;;;;;18.73;13.00;;;;;;;5.64;90.94;100668.91;1798950;79;21477;-68
2021/04/18 03:35:18;;;;;;;18.95;13.48;;;;;;;5.67;90.93;100664.20;1803023;77;21118;-68
2021/04/18 03:37:47;;;;;;;16.80;12.80;;;;;;;5.68;90.84;100670.59;1793510;79;21617;-69
2021/04/18 03:40:18;;;;;;;18.80;13.18;;;;;;;5.68;90.76;100671.11;1808752;79;22284;-69
2021/04/18 03:42:46;;;;;;;17.75;13.48;;;;;;;5.72;90.79;100674.92;1800490;79;21144;-68
2021/04/18 03:45:17;;;;;;;18.23;13.18;;;;;;;5.76;90.74;100672.95;1790223;77;21675;-69
2021/04/18 03:47:47;;;;;;;17.00;12.30;;;;;;;5.85;90.72;100676.90;1774105;79;21068;-69
2021/04/18 03:50:17;;;;;;;17.37;13.18;;;;;;;5.91;90.62;100675.73;1805795;79;21175;-69
2021/04/18 03:52:57;;;;;;;18.77;13.83;;;;;;;5.99;90.50;100668.81;1822949;76;22648;-68
2021/04/18 03:55:26;;;;;;;16.87;12.93;;;;;;;5.95;90.37;100656.52;1792160;78;21160;-69
2021/04/18 03:57:54;;;;;;;17.50;13.08;;;;;;;5.93;90.23;100667.88;1793045;79;22280;-68
2021/04/18 04:00:23;;;;;;;16.20;12.18;;;;;;;5.91;90.23;100672.56;1814959;79;21558;-68
2021/04/18 04:03:11;;;;;;;20.07;14.70;;;;;;;5.98;90.23;100672.50;1814565;75;22746;-69
2021/04/18 04:05:41;;;;;;;20.77;12.45;;;;;;;5.98;90.18;100676.48;1812616;78;21163;-68
2021/04/18 04:08:13;;;;;;;19.95;14.83;;;;;;;6.03;90.15;100668.16;1810308;78;21053;-69
2021/04/18 04:10:44;;;;;;;17.07;12.85;;;;;;;6.11;90.06;100673.66;1813231;78;21053;-68
2021/04/18 04:13:15;;;;;;;17.92;12.80;;;;;;;6.19;90.02;100680.52;1817245;78;21052;-69
2021/04/18 04:15:45;;;;;;;17.50;12.35;;;;;;;6.25;89.89;100676.45;1762670;80;21152;-69
2021/04/18 04:18:15;;;;;;;16.75;11.75;;;;;;;6.30;89.68;100678.41;1742406;81;21653;-68
2021/04/18 04:20:45;;;;;;;14.98;10.98;;;;;;;6.33;89.47;100681.94;1745563;81;21293;-67
2021/04/18 04:23:37;;;;;;;16.50;12.27;;;;;;;6.35;89.10;100670.59;1759224;79;22709;-69
2021/04/18 04:26:06;;;;;;;15.48;11.18;;;;;;;6.31;88.92;100676.04;1735366;82;21588;-68
2021/04/18 04:28:35;;;;;;;13.15;10.45;;;;;;;6.35;88.87;100675.91;1731042;80;22401;-69
2021/04/18 04:31:03;;;;;;;13.70;10.32;;;;;;;6.41;88.71;100674.97;1739430;82;21141;-68
2021/04/18 04:33:37;;;;;;;13.62;10.20;;;;;;;6.46;88.45;100676.97;1734343;82;21216;-69
2021/04/18 04:36:07;;;;;;;14.68;11.08;;;;;;;6.43;87.99;100675.56;1735506;82;21616;-69
2021/04/18 04:38:37;;;;;;;15.40;10.90;;;;;;;6.41;87.89;100671.52;1731730;81;21057;-68
2021/04/18 04:41:04;;;;;;;14.20;10.53;;;;;;;6.40;87.76;100672.03;1730046;82;21215;-69
2021/04/18 04:43:34;;;;;;;15.32;11.75;;;;;;;6.42;87.59;100668.66;1733861;81;21657;-69
2021/04/18 04:46:03;;;;;;;16.67;11.35;;;;;;;6.39;87.46;100664.31;1735195;81;21176;-69
2021/04/18 04:48:31;;;;;;;15.10;11.00;;;;;;;6.34;87.23;100676.39;1733615;82;21105;-69
2021/04/18 04:50:59;;;;;;;15.03;11.05;;;;;;;6.33;87.30;100665.50;1738232;82;21663;-68
2021/04/18 04:53:27;;;;;;;18.62;12.70;;;;;;;6.33;87.18;100665.50;1725454;82;21379;-69
2021/04/18 04:55:55;;;;;;;16.23;11.75;;;;;;;6.29;87.09;100661.69;1736442;82;21109;-69
2021/04/18 04:58:23;;;;;;;13.65;9.85;;;;;;;6.27;87.11;100657.11;1732973;82;21177;-70
2021/04/18 05:00:53;;;;;;;16.27;12.33;;;;;;;6.29;87.18;100659.56;1735211;82;21168;-70
2021/04/18 05:03:25;;;;;;;18.17;12.80;;;;;;;6.28;87.15;100661.38;1734152;82;21617;-69
2021/04/18 05:05:50;;;;;;;14.15;11.03;;;;;;;6.30;87.20;100657.99;1737812;81;21447;-69
2021/04/18 05:08:18;;;;;;;14.98;11.00;;;;;;;6.32;87.09;100657.27;1739206;80;21229;-68
2021/04/18 05:10:47;;;;;;;14.10;10.10;;;;;;;6.36;87.03;100653.63;1727565;82;21156;-69
2021/04/18 05:13:15;;;;;;;14.15;10.50;;;;;;;6.37;86.95;100652.59;1722497;82;21128;-69
2021/04/18 05:15:44;;;;;;;14.95;10.55;;;;;;;6.40;86.95;100656.12;1720834;81;21587;-68
2021/04/18 05:18:12;;;;;;;14.43;9.70;;;;;;;6.43;86.84;100649.56;1725970;82;21259;-68
2021/04/18 05:20:41;;;;;;;11.75;9.15;;;;;;;6.46;86.67;100654.41;1727663;82;21659;-69
2021/04/18 05:23:09;;;;;;;11.40;8.05;;;;;;;6.45;86.35;100635.03;1713949;81;21161;-69
2021/04/18 05:25:38;;;;;;;12.37;9.40;;;;;;;6.44;86.20;100643.20;1701561;84;21204;-68
2021/04/18 05:28:07;;;;;;;13.20;9.85;;;;;;;6.43;86.03;100638.95;1703891;82;21172;-70
2021/04/18 05:30:34;;;;;;;13.53;10.15;;;;;;;6.43;85.95;100637.09;1697385;83;21369;-69
2021/04/18 05:33:04;;;;;;;13.43;10.00;;;;;;;6.44;85.82;100630.74;1698651;84;21182;-69
2021/04/18 05:35:33;;;;;;;11.80;9.13;;;;;;;6.48;85.76;100626.63;1702508;84;21162;-68
2021/04/18 05:38:01;;;;;;;13.48;9.80;;;;;;;6.51;85.70;100620.03;1703251;82;21125;-69
2021/04/18 05:40:29;;;;;;;14.23;10.10;;;;;;;6.55;85.56;100609.27;1694386;83;21166;-68
2021/04/18 05:42:58;;;;;;;12.93;9.90;;;;;;;6.57;85.43;100610.63;1703255;84;21391;-69
2021/04/18 05:45:27;;;;;;;12.37;9.88;;;;;;;6.63;85.46;100613.42;1691106;83;21720;-69
2021/04/18 05:47:55;;;;;;;13.65;10.18;;;;;;;6.68;85.36;100615.69;1700381;83;21430;-68
2021/04/18 05:50:24;;;;;;;12.78;9.70;;;;;;;6.71;85.24;100612.58;1699777;82;21655;-69
2021/04/18 05:52:52;;;;;;;12.68;9.53;;;;;;;6.79;85.04;100612.75;1695857;83;21090;-67
2021/04/18 05:55:21;;;;;;;12.05;9.23;;;;;;;6.84;84.77;100612.04;1708870;83;21207;-68
2021/04/18 05:57:49;;;;;;;11.95;9.20;;;;;;;6.83;84.51;100613.09;1670796;85;21100;-69
2021/04/18 06:00:21;;;;;;;13.20;10.28;;;;;;;6.86;84.54;100623.25;1665903;84;21613;-68
2021/04/18 06:02:49;;;;;;;13.25;9.98;;;;;;;6.92;84.37;100614.37;1658230;86;21102;-69
2021/04/18 06:05:19;;;;;;;13.48;9.73;;;;;;;7.00;84.34;100617.98;1661191;86;21125;-67
2021/04/18 06:07:49;;;;;;;13.15;9.68;;;;;;;7.07;84.14;100614.69;1670486;85;21373;-68
2021/04/18 06:10:17;;;;;;;10.98;8.53;;;;;;;7.08;83.74;100616.84;1700976;83;21165;-69
2021/04/18 06:12:45;;;;;;;12.68;9.98;;;;;;;7.07;83.45;100617.88;1690874;84;21122;-69
2021/04/18 06:15:13;;;;;;;12.07;9.45;;;;;;;7.04;83.33;100611.16;1705230;84;21173;-69
2021/04/18 06:17:41;;;;;;;11.70;8.50;;;;;;;7.02;83.35;100615.92;1703453;84;21138;-69
2021/04/18 06:20:09;;;;;;;12.00;8.85;;;;;;;7.08;83.43;100618.17;1698902;82;21367;-69
2021/04/18 06:22:37;;;;;;;12.82;9.95;;;;;;;7.16;83.33;100624.45;1696135;84;21170;-68
2021/04/18 06:25:07;;;;;;;12.45;9.48;;;;;;;7.20;83.19;100615.77;1691359;84;21165;-68
2021/04/18 06:27:35;;;;;;;12.30;8.88;;;;;;;7.25;83.13;100613.23;1680078;84;21604;-68
2021/04/18 06:30:05;;;;;;;12.47;9.30;;;;;;;7.33;83.10;100612.06;1692603;83;21169;-69
2021/04/18 06:32:33;;;;;;;12.53;10.35;;;;;;;7.39;83.03;100613.78;1699261;84;21374;-69
2021/04/18 06:35:04;;;;;;;13.13;9.45;;;;;;;7.43;82.48;100610.14;1698016;84;21586;-69
2021/04/18 06:37:33;;;;;;;13.48;10.60;;;;;;;7.46;82.46;100611.00;1695458;84;21168;-68
2021/04/18 06:40:02;;;;;;;11.40;8.75;;;;;;;7.53;82.42;100605.02;1687804;82;21209;-69
2021/04/18 06:42:32;;;;;;;12.68;9.45;;;;;;;7.64;82.28;100602.07;1699099;84;21600;-69
2021/04/18 06:45:00;;;;;;;12.47;10.23;;;;;;;7.72;81.74;100594.51;1702699;83;21396;-69
2021/04/18 06:47:29;;;;;;;13.10;9.90;;;;;;;7.79;81.62;100592.23;1698219;84;21090;-69
2021/04/18 06:50:11;;;;;;;13.37;10.07;;;;;;;7.90;81.15;100584.22;1766465;78;22742;-68
2021/04/18 06:52:41;;;;;;;12.78;9.25;;;;;;;7.91;81.06;100593.80;1735298;82;21134;-68
2021/04/18 06:55:10;;;;;;;11.95;9.28;;;;;;;8.00;80.95;100587.59;1728557;82;22383;-69
2021/04/18 06:57:38;;;;;;;12.33;9.43;;;;;;;8.08;80.56;100591.70;1736899;82;21181;-69
2021/04/18 07:00:09;;;;;;;11.73;9.10;;;;;;;8.13;80.48;100589.14;1745455;82;21677;-68
2021/04/18 07:02:37;;;;;;;11.83;9.15;;;;;;;8.19;80.08;100586.33;1730917;82;21200;-69
2021/04/18 07:05:15;;;;;;;11.12;8.40;;;;;;;8.28;79.95;100580.60;1744524;82;21137;-68
2021/04/18 07:07:46;;;;;;;11.93;9.00;;;;;;;8.36;79.69;100581.55;1735751;82;21379;-68
2021/04/18 07:10:27;;;;;;;10.28;8.73;;;;;;;8.35;78.91;100578.59;1741096;82;21200;-69
2021/04/18 07:12:55;;;;;;;12.23;9.83;;;;;;;8.31;78.77;100573.47;1703628;83;21212;-69
2021/04/18 07:15:41;;;;;;;11.75;9.03;;;;;;;8.28;78.46;100576.08;1697574;84;21203;-69
2021/04/18 07:18:12;;;;;;;11.68;9.70;;;;;;;8.23;78.44;100566.17;1689421;84;21265;-68
2021/04/18 07:20:54;;;;;;;12.67;9.30;;;;;;;8.25;78.59;100561.92;1685437;82;21971;-69
2021/04/18 07:23:36;;;;;;;12.67;9.30;;;;;;;8.36;78.49;100561.59;1801116;79;22745;-69
2021/04/18 07:26:26;;;;;;;11.65;9.63;;;;;;;8.40;78.44;100561.41;1785408;79;21123;-68
2021/04/18 07:29:17;;;;;;;12.07;9.20;;;;;;;8.46;78.10;100557.78;1793531;79;22121;-69
2021/04/18 07:31:46;;;;;;;12.95;9.58;;;;;;;8.51;78.07;100557.84;1794452;79;21128;-69
2021/04/18 07:34:21;;;;;;;11.15;8.53;;;;;;;8.60;77.90;100556.92;1805892;78;21172;-69
2021/04/18 07:37:12;;;;;;;11.85;9.33;;;;;;;8.67;77.63;100561.55;1778184;79;21584;-69
2021/04/18 07:39:59;;;;;;;10.13;8.28;;;;;;;8.74;77.29;100561.38;1765786;78;21139;-69
2021/04/18 07:42:41;;;;;;;10.82;8.55;;;;;;;8.77;77.21;100560.89;1807338;78;21701;-68
2021/04/18 07:45:14;;;;;;;12.68;9.08;;;;;;;8.80;76.98;100565.73;1787960;79;21206;-69
2021/04/18 07:48:16;;;;;;;13.13;9.33;;;;;;;8.83;76.73;100563.91;1788823;78;22800;-69
2021/04/18 07:50:47;;;;;;;11.35;9.30;;;;;;;8.79;76.79;100560.14;1708483;81;21244;-69
2021/04/18 07:53:18;;;;;;;11.12;8.78;;;;;;;8.80;76.67;100562.54;1736400;81;21207;-70
2021/04/18 07:55:46;;;;;;;12.90;9.98;;;;;;;8.79;76.60;100561.47;1741734;81;21298;-69
2021/04/18 07:58:14;;;;;;;12.80;9.75;;;;;;;8.79;76.69;100556.94;1738834;81;21188;-70
2021/04/18 08:00:42;;;;;;;12.55;9.05;;;;;;;8.75;76.68;100559.80;1743781;81;21270;-69
2021/04/18 08:03:12;;;;;;;13.32;9.70;;;;;;;8.78;76.74;100560.63;1731212;81;21180;-68
2021/04/18 08:05:41;;;;;;;13.58;10.45;;;;;;;8.82;76.79;100558.31;1666618;83;21259;-71
2021/04/18 08:08:14;;;;;;;11.85;8.48;;;;;;;8.85;76.80;100558.63;1726297;81;21649;-69
2021/04/18 08:10:46;;;;;;;11.38;8.90;;;;;;;8.88;76.88;100557.31;1724888;81;21268;-70
2021/04/18 08:13:22;;;;;;;12.28;8.85;;;;;;;8.86;76.76;100560.23;1734921;80;21577;-69
2021/04/18 08:16:03;;;;;;;11.68;8.95;;;;;;;8.86;76.79;100555.44;1726239;81;21239;-69
2021/04/18 08:18:47;;;;;;;11.57;9.07;;;;;;;8.84;76.80;100562.33;1726882;82;21200;-71
2021/04/18 08:21:34;;;;;;;10.95;8.93;;;;;;;8.79;77.07;100564.12;1728765;82;21237;-69
2021/04/18 08:24:05;;;;;;;11.83;8.40;;;;;;;8.74;77.36;100558.72;1716783;81;21148;-71
2021/04/18 08:26:34;;;;;;;10.40;7.80;;;;;;;8.77;77.61;100560.89;1729349;81;21141;-69
2021/04/18 08:29:07;;;;;;;10.28;8.10;;;;;;;8.78;77.72;100561.97;1732353;81;21155;-69
2021/04/18 08:31:52;;;;;;;10.90;8.13;;;;;;;8.78;77.68;100565.16;1718893;83;21202;-68
2021/04/18 08:34:34;;;;;;;10.65;8.35;;;;;;;8.80;77.68;100565.73;1734009;81;21204;-69
2021/04/18 08:37:08;;;;;;;11.70;8.50;;;;;;;8.79;77.76;100560.94;1728366;81;21184;-69
2021/04/18 08:39:40;;;;;;;11.95;8.13;;;;;;;8.81;77.44;100564.67;1716663;83;21160;-69
2021/04/18 08:42:11;;;;;;;10.85;8.23;;;;;;;8.81;77.44;100560.68;1708347;83;21175;-70
2021/04/18 08:44:43;;;;;;;10.85;8.03;;;;;;;8.81;77.23;100556.16;1683363;83;21800;-69
2021/04/18 08:47:16;;;;;;;9.95;8.05;;;;;;;8.82;76.92;100559.65;1733063;81;21620;-68
2021/04/18 08:49:52;;;;;;;10.75;8.40;;;;;;;8.81;76.67;100560.68;1737523;80;21675;-69
2021/04/18 08:52:26;;;;;;;12.25;8.45;;;;;;;8.81;76.45;100563.34;1743838;81;21165;-68
2021/04/18 08:54:57;;;;;;;11.48;8.83;;;;;;;8.83;76.37;100550.59;1737002;81;21670;-69
2021/04/18 08:57:28;;;;;;;10.65;8.13;;;;;;;8.85;76.16;100545.81;1743365;81;21379;-68
2021/04/18 08:59:59;;;;;;;9.93;8.15;;;;;;;8.88;76.17;100546.66;1731528;81;21313;-69
2021/04/18 09:02:29;;;;;;;13.72;9.15;;;;;;;8.89;75.98;100546.95;1754952;80;21224;-69
2021/04/18 09:05:00;;;;;;;11.35;8.78;;;;;;;8.87;75.85;100549.84;1737919;81;21644;-70
2021/04/18 09:07:32;;;;;;;13.72;9.13;;;;;;;8.90;75.96;100545.89;1743149;81;21196;-69
2021/04/18 09:10:03;;;;;;;10.40;7.95;;;;;;;8.89;75.89;100541.63;1748748;81;22350;-68
2021/04/18 09:12:31;;;;;;;11.97;8.88;;;;;;;8.87;75.92;100548.52;1725441;81;21836;-69
2021/04/18 09:14:59;;;;;;;11.25;9.28;;;;;;;8.87;76.08;100552.52;1736257;81;21228;-69
2021/04/18 09:17:29;;;;;;;11.48;8.55;;;;;;;8.90;76.17;100539.23;1739087;81;21252;-69
2021/04/18 09:20:18;;;;;;;12.00;8.78;;;;;;;8.90;76.10;100548.56;1733198;81;21196;-70
2021/04/18 09:22:45;;;;;;;11.97;9.05;;;;;;;8.88;75.93;100553.31;1699664;81;21380;-69
2021/04/18 09:25:20;;;;;;;9.75;7.85;;;;;;;8.85;75.92;100540.48;1737295;81;21244;-70
2021/04/18 09:27:50;;;;;;;10.68;8.58;;;;;;;8.82;76.01;100555.13;1737178;81;21181;-69
2021/04/18 09:30:26;;;;;;;10.15;8.30;;;;;;;8.84;76.11;100549.53;1748946;81;21189;-69
2021/04/18 09:32:55;;;;;;;10.23;8.15;;;;;;;8.84;75.99;100551.67;1728731;81;21190;-69
2021/04/18 09:35:25;;;;;;;10.43;7.78;;;;;;;8.84;75.95;100553.00;1739870;80;21140;-68
2021/04/18 09:40:42;;;;;;;10.07;8.20;;;;;;;8.90;76.07;100551.22;1754658;79;22867;-69
2021/04/18 09:43:10;;;;;;;10.32;7.87;;;;;;;8.86;76.15;100552.77;1726220;82;21187;-70
2021/04/18 09:45:37;;;;;;;11.45;8.83;;;;;;;8.90;76.22;100560.02;1727527;82;21205;-69
2021/04/18 09:48:20;;;;;;;12.20;8.63;;;;;;;8.93;76.22;100548.07;1733062;82;21191;-69
2021/04/18 09:51:03;;;;;;;11.35;8.43;;;;;;;8.95;76.18;100552.64;1726612;82;21212;-69
2021/04/18 09:53:31;;;;;;;10.95;8.85;;;;;;;8.98;76.37;100553.45;1732231;82;21237;-69
2021/04/18 09:58:47;;;;;;;9.53;7.87;;;;;;;9.12;76.29;100556.59;1767862;79;22754;-69
2021/04/18 10:01:27;;;;;;;10.25;7.83;;;;;;;9.13;76.39;100557.66;1730992;82;21100;-67
2021/04/18 10:03:56;;;;;;;11.10;8.43;;;;;;;9.20;76.22;100564.14;1793460;79;21365;-69
2021/04/18 10:06:24;;;;;;;10.80;8.28;;;;;;;9.26;76.12;100559.69;1799185;79;21190;-70
2021/04/18 10:08:56;;;;;;;10.13;7.55;;;;;;;9.34;76.06;100564.56;1806622;79;21218;-68
2021/04/18 10:11:24;;;;;;;10.20;8.35;;;;;;;9.41;75.79;100571.88;1792442;79;21666;-69
2021/04/18 10:13:59;;;;;;;10.65;8.08;;;;;;;9.44;75.80;100570.02;1786959;79;21610;-68
2021/04/18 10:16:38;;;;;;;12.05;8.15;;;;;;;9.48;75.50;100572.48;1803494;77;21355;-69
2021/04/18 10:19:15;;;;;;;11.43;8.68;;;;;;;9.53;75.46;100574.39;1806273;79;21627;-69
2021/04/18 10:22:10;;;;;;;11.07;8.80;;;;;;;9.56;75.35;100578.70;1795702;79;21694;-69
2021/04/18 10:24:51;;;;;;;11.45;8.60;;;;;;;9.65;75.22;100584.94;1777836;79;21356;-69
2021/04/18 10:27:30;;;;;;;12.60;8.50;;;;;;;9.71;74.79;100590.08;1792406;79;21202;-68
2021/04/18 10:30:05;;;;;;;12.13;7.45;;;;;;;9.73;74.71;100585.81;1793346;79;21364;-69
2021/04/18 10:32:33;;;;;;;10.95;8.53;;;;;;;9.73;74.60;100588.48;1796566;79;21167;-70
2021/04/18 10:35:02;;;;;;;10.23;8.73;;;;;;;9.71;74.41;100587.94;1788011;77;21135;-69
2021/04/18 10:37:29;;;;;;;11.37;9.13;;;;;;;9.67;74.43;100592.14;1786390;79;21251;-69
2021/04/18 10:39:57;;;;;;;13.17;9.37;;;;;;;9.62;74.41;100595.04;1786624;79;21338;-69
2021/04/18 10:42:25;;;;;;;10.63;8.37;;;;;;;9.60;74.50;100598.47;1802982;79;22197;-69
2021/04/18 10:44:53;;;;;;;14.87;9.30;;;;;;;9.59;74.78;100596.06;1791516;77;21393;-69
2021/04/18 10:47:21;;;;;;;12.18;8.63;;;;;;;9.63;74.93;100601.97;1797985;79;21249;-69
2021/04/18 10:49:50;;;;;;;11.80;9.03;;;;;;;9.66;74.93;100603.88;1794934;79;21665;-69
2021/04/18 10:52:18;;;;;;;12.47;9.87;;;;;;;9.66;74.81;100600.67;1798881;79;21258;-69
2021/04/18 10:54:47;;;;;;;10.88;9.13;;;;;;;9.68;74.76;100600.44;1742190;82;21662;-69
2021/04/18 10:57:16;;;;;;;9.93;8.50;;;;;;;9.69;74.71;100595.38;1745220;79;21203;-69
2021/04/18 10:59:44;;;;;;;12.90;9.58;;;;;;;9.69;74.79;100594.05;1702109;83;21672;-69
2021/04/18 11:02:12;;;;;;;11.13;9.93;;;;;;;9.70;74.88;100594.31;1724914;82;21191;-69
2021/04/18 11:04:40;;;;;;;11.93;9.48;;;;;;;9.73;74.83;100595.15;1736363;82;21706;-69
2021/04/18 11:07:09;;;;;;;12.20;9.43;;;;;;;9.74;74.81;100598.92;1733754;81;21484;-69
2021/04/18 11:09:37;;;;;;;10.75;9.10;;;;;;;9.78;74.79;100604.55;1729248;81;22824;-68
2021/04/18 11:12:17;;;;;;;11.83;9.10;;;;;;;9.79;74.84;100596.82;1735061;81;21255;-68
2021/04/18 11:14:45;;;;;;;11.40;9.37;;;;;;;9.79;74.87;100598.95;1738256;82;21949;-68
2021/04/18 11:17:13;;;;;;;12.57;10.00;;;;;;;9.84;74.95;100592.89;1734056;81;21856;-68
2021/04/18 11:19:42;;;;;;;12.13;9.43;;;;;;;9.89;74.93;100590.78;1731793;82;22103;-68
2021/04/18 11:22:10;;;;;;;11.87;9.33;;;;;;;9.95;75.00;100597.26;1734574;81;21369;-69
2021/04/18 11:24:38;;;;;;;13.37;9.17;;;;;;;10.03;74.69;100596.79;1735455;82;21410;-68
2021/04/18 11:27:06;;;;;;;12.63;9.43;;;;;;;10.13;74.49;100596.61;1734084;81;21530;-69
2021/04/18 11:29:38;;;;;;;10.23;8.87;;;;;;;10.23;74.40;100606.05;1725038;82;21404;-69
2021/04/18 11:32:07;;;;;;;11.00;8.85;;;;;;;10.36;74.02;100601.66;1736291;81;21381;-69
2021/04/18 11:34:36;;;;;;;11.80;9.30;;;;;;;10.45;73.71;100600.14;1731164;81;21140;-69
2021/04/18 11:37:04;;;;;;;10.20;7.83;;;;;;;10.54;73.61;100597.28;1734350;81;21681;-68
2021/04/18 11:39:33;;;;;;;12.03;9.00;;;;;;;10.71;73.31;100597.67;1733542;82;21406;-68
2021/04/18 11:42:02;;;;;;;12.20;8.40;;;;;;;10.87;72.75;100595.38;1733449;81;21360;-68
2021/04/18 11:44:30;;;;;;;10.10;8.23;;;;;;;11.03;72.06;100588.26;1734486;81;21416;-69